Airfield :
LOGIN :

Register | Disclaimer

   EN    FR    IT 

 










Legend :    VFR   Marginal VFR   IFR   Intensive IFR   Very Intensive IFR
Visi :
Ceiling :
>= 8 km
>= 3000ft
5 to 8 km
1000 to 3000 ft
1500m to 5 km
500 to 1000 ft
800 to 1500m
200 to 500 ft
< 800m
< 200 ft
Symbols :   Thunderstorms  Fog  Heavy snow  Heavy precipitations  Wind > 20 kt
SIGMETs :     Misc.  Thunderstorms  Icing  Turbulence  Mountain Waves  Volcanic Ashes







- Airport Elevation : 353 ft
- IATA code : LIN


LIML - Milano Linate

CURRENT METAR :
  • 161150Z VRB02KT 9999 SCT040 10/00 Q1019 NOSIG

EXPIRED METARs :
  • 161120Z VRB02KT 9999 BKN040 09/M00 Q1019 NOSIG
  • 161050Z VRB02KT 9999 BKN030 08/01 Q1020 NOSIG
  • 161020Z VRB02KT 9999 BKN040 07/M00 Q1020 NOSIG
  • 160950Z VRB02KT 9999 BKN040 06/M00 Q1020 NOSIG
  • 160920Z VRB01KT 9999 BKN040 06/01 Q1020 NOSIG
  • 160850Z VRB01KT 9999 BKN040 05/M01 Q1020 NOSIG

TAF TAF LIML
Valid from the 16 at 12:00 until the 17 at 12:00 UTC


161100Z 1612/1712 VRB05KT 9999 BKN040
BECMG 1619/1621 4000 RA BKN012
No reported NOTAMs for that airfield.



MET'MAP, your aeronautical weather chart ! - Copyright ORBIFLY December 2007 - Disclaimer

ORBIFLY MET'MAP TEAM :

Programming & Development : Alexandra Zaïnal
Concept & Development : Baudouin d'Aumeries
Co-Development & Prog : Marc-Olivier Méhu
Technical & hardware support : Manuel Goepfert

Contact : metmap@orbifly.com




SOURCES & CREDITS :

   NOAA